Time;durP1;ratioP1;P1;durP2;ratioP2;P2;SDS_P1;SDS_P2;PMS_P1;PMS_P2;Temp;Humidity;BMP_temperature;BMP_pressure;BME280_temperature;BME280_humidity;BME280_pressure;Samples;Min_cycle;Max_cycle;Signal;HPM_P1;HPM_P2
2023/01/31 00:01:13;;;;;;;12.30;2.17;;;2.80;1.00;;;;;;8265994;28;20191;-67
2023/01/31 00:05:15;;;;;;;12.90;2.30;;;2.80;1.00;;;;;;8268619;28;20218;-67
2023/01/31 00:09:16;;;;;;;16.27;2.23;;;2.80;1.00;;;;;;8267313;28;20321;-67
2023/01/31 00:13:16;;;;;;;18.07;3.73;;;2.90;99.90;;;;;;8270991;28;20245;-67
2023/01/31 00:17:17;;;;;;;11.80;2.33;;;2.80;99.90;;;;;;8271263;28;20187;-68
2023/01/31 00:21:21;;;;;;;7.23;1.93;;;2.80;99.90;;;;;;8267700;28;20185;-67
2023/01/31 00:25:22;;;;;;;10.07;2.63;;;2.80;1.00;;;;;;8264067;28;20207;-68
2023/01/31 00:29:23;;;;;;;6.73;2.20;;;2.90;99.90;;;;;;8261838;28;20210;-68
2023/01/31 00:33:23;;;;;;;15.30;2.60;;;2.90;99.90;;;;;;8263790;28;20238;-66
2023/01/31 00:37:25;;;;;;;6.33;1.80;;;3.00;99.90;;;;;;8270642;28;20210;-67
2023/01/31 00:41:28;;;;;;;12.40;2.40;;;2.90;99.90;;;;;;8268760;28;20233;-67
2023/01/31 00:45:29;;;;;;;12.90;2.40;;;3.00;1.00;;;;;;8263110;28;20207;-67
2023/01/31 00:49:29;;;;;;;5.40;1.33;;;2.90;1.00;;;;;;8265065;28;20206;-67
2023/01/31 00:53:30;;;;;;;8.77;1.90;;;2.80;1.00;;;;;;8263237;28;20222;-68
2023/01/31 00:57:31;;;;;;;10.03;1.77;;;2.60;1.00;;;;;;8267621;28;20210;-67
2023/01/31 01:01:32;;;;;;;7.67;1.70;;;2.60;1.00;;;;;;8265888;28;20213;-67
2023/01/31 01:05:32;;;;;;;11.37;1.87;;;2.60;99.90;;;;;;8265186;28;20203;-67
2023/01/31 01:09:33;;;;;;;8.73;2.37;;;2.50;99.90;;;;;;8264261;28;20176;-67
2023/01/31 01:13:34;;;;;;;8.30;1.73;;;2.50;99.90;;;;;;8260235;28;20233;-68
2023/01/31 01:17:35;;;;;;;13.90;2.27;;;2.50;99.90;;;;;;8268296;28;20188;-66
2023/01/31 01:21:38;;;;;;;7.30;1.80;;;2.60;99.90;;;;;;8269913;28;20187;-67
2023/01/31 01:25:43;;;;;;;10.97;2.27;;;2.50;99.90;;;;;;8262579;28;20280;-68
2023/01/31 01:29:44;;;;;;;10.50;2.00;;;2.60;99.90;;;;;;8264178;28;20190;-67
2023/01/31 01:33:47;;;;;;;7.70;1.83;;;2.70;1.00;;;;;;8267927;28;20199;-66
2023/01/31 01:37:48;;;;;;;7.90;2.03;;;2.80;1.00;;;;;;8262959;28;20184;-67
2023/01/31 01:41:50;;;;;;;7.47;1.80;;;2.70;1.00;;;;;;8269517;28;20235;-68
2023/01/31 01:45:52;;;;;;;9.13;1.60;;;2.70;1.00;;;;;;8269310;28;20227;-67
2023/01/31 01:49:58;;;;;;;9.87;1.87;;;2.80;99.90;;;;;;8262188;28;20241;-67
2023/01/31 01:54:03;;;;;;;11.97;2.53;;;2.90;99.90;;;;;;8262722;28;20218;-67
2023/01/31 01:58:14;;;;;;;9.10;1.97;;;2.80;1.00;;;;;;8263384;28;20218;-67
2023/01/31 02:02:15;;;;;;;12.83;1.90;;;2.80;1.00;;;;;;8263506;28;20210;-66
2023/01/31 02:06:16;;;;;;;8.73;2.53;;;2.80;1.00;;;;;;8265147;28;20187;-68
2023/01/31 02:10:21;;;;;;;9.10;2.60;;;2.80;1.00;;;;;;8260820;28;20190;-67
2023/01/31 02:14:22;;;;;;;7.63;1.90;;;2.80;1.00;;;;;;8265926;28;20189;-67
2023/01/31 02:18:24;;;;;;;8.53;1.87;;;2.80;1.00;;;;;;8270721;28;20195;-67
2023/01/31 02:22:53;;;;;;;8.20;2.00;;;2.80;1.00;;;;;;8270854;28;20215;-67
2023/01/31 02:27:18;;;;;;;8.27;2.47;;;2.80;99.90;;;;;;8271825;28;20274;-66
2023/01/31 02:31:28;;;;;;;11.03;2.00;;;2.80;99.90;;;;;;8270366;28;20269;-67
2023/01/31 02:35:50;;;;;;;6.97;1.77;;;2.80;99.90;;;;;;8271930;28;20213;-67
2023/01/31 02:40:35;;;;;;;9.43;1.97;;;2.70;1.00;;;;;;8274385;28;20210;-67
2023/01/31 02:45:03;;;;;;;7.97;2.07;;;2.70;1.00;;;;;;8263614;28;20215;-67
2023/01/31 02:49:33;;;;;;;8.50;2.00;;;2.60;1.00;;;;;;8267176;28;20257;-68
2023/01/31 02:53:41;;;;;;;9.50;1.60;;;2.60;1.00;;;;;;8267670;28;20191;-67
2023/01/31 02:57:44;;;;;;;9.43;1.90;;;2.50;1.00;;;;;;8269926;28;20317;-66
2023/01/31 03:01:48;;;;;;;8.33;1.70;;;2.50;1.00;;;;;;8265795;28;20238;-67
2023/01/31 03:06:23;;;;;;;11.07;2.10;;;2.50;1.00;;;;;;8266171;28;20207;-66
2023/01/31 03:10:24;;;;;;;12.93;1.73;;;2.40;63.10;;;;;;8271213;28;20349;-67
2023/01/31 03:14:47;;;;;;;15.10;2.30;;;2.40;99.90;;;;;;8267938;28;20184;-67
2023/01/31 03:19:02;;;;;;;10.70;1.97;;;2.20;99.90;;;;;;8263186;28;20202;-67
2023/01/31 03:23:10;;;;;;;13.53;1.83;;;2.00;21.90;;;;;;8273189;28;20209;-67
2023/01/31 03:27:12;;;;;;;13.83;2.30;;;1.90;1.00;;;;;;8264933;28;20199;-67
2023/01/31 03:31:24;;;;;;;7.93;1.73;;;1.80;99.90;;;;;;8269883;28;20266;-66
2023/01/31 03:35:29;;;;;;;9.07;1.80;;;1.80;99.90;;;;;;8266231;28;20219;-67
2023/01/31 03:39:58;;;;;;;9.00;2.30;;;1.70;1.00;;;;;;8268333;28;20364;-67
2023/01/31 03:44:25;;;;;;;11.60;1.83;;;1.60;99.90;;;;;;8264253;28;20203;-68
2023/01/31 03:48:32;;;;;;;4.90;1.33;;;1.70;99.90;;;;;;8261359;28;20241;-67
2023/01/31 03:52:39;;;;;;;6.37;1.27;;;1.70;1.00;;;;;;8268288;28;20192;-67
2023/01/31 03:57:06;;;;;;;10.60;1.97;;;1.70;99.90;;;;;;8273022;28;20545;-67
2023/01/31 04:01:09;;;;;;;8.73;2.30;;;1.70;1.00;;;;;;8268250;28;20217;-66
2023/01/31 04:05:19;;;;;;;18.70;2.60;;;1.70;99.90;;;;;;8270313;28;20211;-67
2023/01/31 04:09:20;;;;;;;7.30;2.13;;;1.80;94.50;;;;;;8268074;28;20432;-67
2023/01/31 04:13:21;;;;;;;10.73;1.83;;;1.80;1.00;;;;;;8262165;28;20191;-66
2023/01/31 04:17:21;;;;;;;12.33;2.47;;;1.70;1.00;;;;;;8265018;28;20188;-66
2023/01/31 04:21:22;;;;;;;8.27;1.40;;;1.70;99.90;;;;;;8268621;28;20193;-67
2023/01/31 04:25:23;;;;;;;7.77;1.63;;;1.60;99.90;;;;;;8265402;28;20206;-66
2023/01/31 04:29:24;;;;;;;9.13;1.37;;;1.60;99.90;;;;;;8260156;28;20195;-67
2023/01/31 04:33:25;;;;;;;6.10;1.57;;;1.60;1.00;;;;;;8267806;28;20191;-66
2023/01/31 04:37:26;;;;;;;9.33;1.90;;;1.50;99.90;;;;;;8266089;28;20303;-67
2023/01/31 04:41:27;;;;;;;6.00;1.90;;;1.40;99.90;;;;;;8263711;28;20302;-67
2023/01/31 04:45:27;;;;;;;11.30;2.10;;;1.20;1.00;;;;;;8268492;28;20211;-67
2023/01/31 04:49:28;;;;;;;7.67;1.80;;;1.20;1.00;;;;;;8269267;28;20215;-67
2023/01/31 04:53:29;;;;;;;7.03;1.70;;;1.20;99.90;;;;;;8270219;28;20248;-66
2023/01/31 04:57:30;;;;;;;5.43;1.37;;;1.20;1.00;;;;;;8270206;28;20278;-67
2023/01/31 05:01:30;;;;;;;10.97;2.03;;;1.30;1.00;;;;;;8263471;28;20184;-67
2023/01/31 05:05:32;;;;;;;8.83;1.63;;;1.30;1.00;;;;;;8263679;28;20200;-67
2023/01/31 05:09:33;;;;;;;9.17;1.63;;;1.40;99.90;;;;;;8266346;28;20218;-66
2023/01/31 05:13:37;;;;;;;12.57;1.90;;;1.40;99.90;;;;;;8265634;28;20285;-67
2023/01/31 05:17:38;;;;;;;7.17;1.90;;;1.50;30.30;;;;;;8263412;28;20183;-67
2023/01/31 05:21:53;;;;;;;7.20;1.77;;;1.60;1.00;;;;;;8264859;28;20191;-67
2023/01/31 05:25:54;;;;;;;9.77;2.30;;;1.60;99.90;;;;;;8264921;28;20207;-67
2023/01/31 05:29:55;;;;;;;7.37;1.70;;;1.70;99.90;;;;;;8268357;28;20214;-66
2023/01/31 05:33:56;;;;;;;10.33;2.47;;;1.70;1.00;;;;;;8267649;28;20191;-67
2023/01/31 05:37:57;;;;;;;9.40;2.17;;;1.70;99.90;;;;;;8265621;28;20183;-67
2023/01/31 05:41:58;;;;;;;11.90;2.07;;;1.70;99.90;;;;;;8264820;28;20199;-67
2023/01/31 05:45:59;;;;;;;8.07;1.37;;;1.70;99.90;;;;;;8262808;28;20216;-66
2023/01/31 05:49:59;;;;;;;7.57;2.67;;;1.70;99.90;;;;;;8261252;28;20191;-67
2023/01/31 05:54:00;;;;;;;9.83;1.93;;;1.60;99.90;;;;;;8262354;28;20191;-67
2023/01/31 05:58:01;;;;;;;6.77;1.37;;;1.70;1.00;;;;;;8267253;28;20190;-67
2023/01/31 06:02:02;;;;;;;8.93;1.37;;;1.70;99.90;;;;;;8270137;28;20183;-66
2023/01/31 06:06:04;;;;;;;8.90;1.60;;;1.80;1.00;;;;;;8269446;28;20210;-66
2023/01/31 06:10:06;;;;;;;7.80;1.53;;;1.80;99.90;;;;;;8270278;28;20222;-66
2023/01/31 06:14:08;;;;;;;7.27;1.37;;;1.90;99.90;;;;;;8266087;28;20191;-66
2023/01/31 06:18:09;;;;;;;8.27;1.53;;;1.90;99.90;;;;;;8274403;28;20231;-66
2023/01/31 06:22:10;;;;;;;7.53;1.77;;;1.90;71.30;;;;;;8262337;28;20217;-66
2023/01/31 06:26:11;;;;;;;8.40;1.57;;;1.90;66.00;;;;;;8267431;28;20194;-67
2023/01/31 06:30:12;;;;;;;7.50;1.63;;;1.80;97.80;;;;;;8265554;28;20188;-68
2023/01/31 06:34:13;;;;;;;9.90;1.77;;;1.80;99.90;;;;;;8268111;28;20191;-67
2023/01/31 06:38:15;;;;;;;8.93;1.97;;;1.60;99.90;;;;;;8263483;28;20266;-67
2023/01/31 06:42:15;;;;;;;9.93;2.00;;;1.50;99.90;;;;;;8266048;28;20199;-67
2023/01/31 06:46:17;;;;;;;8.17;1.93;;;1.30;1.00;;;;;;8261252;28;20253;-67
2023/01/31 06:50:17;;;;;;;7.43;2.20;;;1.20;99.90;;;;;;8259381;28;20183;-71
2023/01/31 06:54:18;;;;;;;11.27;1.80;;;1.20;1.00;;;;;;8262967;28;20194;-72
2023/01/31 06:58:19;;;;;;;5.37;1.60;;;1.20;99.90;;;;;;8263984;28;20190;-70
2023/01/31 07:02:22;;;;;;;12.30;2.03;;;1.20;99.90;;;;;;8270640;28;20195;-71
2023/01/31 07:06:23;;;;;;;4.87;1.30;;;1.10;99.90;;;;;;8268822;28;20187;-71
2023/01/31 07:10:24;;;;;;;4.90;1.40;;;1.10;99.90;;;;;;8268370;28;20187;-71
2023/01/31 07:14:25;;;;;;;12.07;1.63;;;1.00;1.00;;;;;;8266452;28;20277;-71
2023/01/31 07:18:26;;;;;;;8.53;1.40;;;1.10;1.00;;;;;;8278374;28;20218;-70
2023/01/31 07:22:27;;;;;;;12.40;2.30;;;1.20;1.00;;;;;;8271189;28;20469;-71
2023/01/31 07:26:27;;;;;;;7.47;1.50;;;1.30;99.90;;;;;;8267394;28;20210;-70
2023/01/31 07:30:29;;;;;;;8.10;2.07;;;1.50;99.90;;;;;;8269314;28;20183;-70
2023/01/31 07:34:30;;;;;;;9.83;2.17;;;1.70;1.00;;;;;;8272372;28;20255;-71
2023/01/31 07:38:31;;;;;;;3.83;1.27;;;1.90;99.90;;;;;;8270859;28;20261;-71
2023/01/31 07:42:32;;;;;;;7.57;1.90;;;2.00;99.90;;;;;;8266076;28;20186;-71
2023/01/31 07:46:33;;;;;;;10.80;1.70;;;2.20;99.90;;;;;;8265661;28;20390;-73
2023/01/31 07:50:34;;;;;;;9.07;1.60;;;2.30;90.70;;;;;;8271671;28;20322;-71
2023/01/31 07:54:35;;;;;;;8.33;1.93;;;2.40;99.90;;;;;;8268163;28;20199;-71
2023/01/31 07:58:37;;;;;;;13.93;2.00;;;2.40;99.90;;;;;;8267586;28;20635;-70
2023/01/31 08:07:00;;;;;;;7.73;1.90;;;2.20;99.90;;;;;;8266652;28;20202;-71
2023/01/31 08:11:01;;;;;;;9.70;1.77;;;2.20;1.00;;;;;;8272898;28;20183;-70
2023/01/31 08:15:01;;;;;;;4.70;1.40;;;2.20;1.00;;;;;;8271034;28;20302;-71
2023/01/31 08:19:03;;;;;;;8.33;2.00;;;2.20;99.90;;;;;;8266263;28;20198;-71
2023/01/31 08:23:04;;;;;;;8.43;2.03;;;2.20;99.90;;;;;;8268710;28;20214;-71
2023/01/31 08:27:04;;;;;;;6.50;1.90;;;2.40;1.00;;;;;;8267899;28;20183;-70
2023/01/31 08:31:06;;;;;;;10.27;1.70;;;2.50;99.90;;;;;;8269700;28;20204;-71
2023/01/31 08:35:07;;;;;;;9.40;2.07;;;2.50;19.80;;;;;;8273279;28;20211;-71
2023/01/31 08:39:08;;;;;;;8.17;2.00;;;2.60;99.90;;;;;;8266375;28;20191;-71
2023/01/31 08:43:09;;;;;;;6.53;1.27;;;2.80;99.90;;;;;;8272703;28;20262;-71
2023/01/31 08:47:10;;;;;;;13.27;3.13;;;2.90;99.90;;;;;;8267216;28;20194;-71
2023/01/31 08:51:12;;;;;;;13.13;2.47;;;2.90;1.00;;;;;;8262512;28;20230;-72
2023/01/31 08:55:13;;;;;;;4.00;1.63;;;3.00;88.70;;;;;;8269284;28;20180;-70
2023/01/31 08:59:14;;;;;;;6.30;1.90;;;3.00;99.90;;;;;;8272416;28;20184;-72
2023/01/31 09:03:18;;;;;;;8.87;1.80;;;3.00;1.00;;;;;;8262443;28;20230;-71
2023/01/31 09:07:20;;;;;;;10.20;2.03;;;3.10;99.90;;;;;;8267630;28;20185;-72
2023/01/31 09:11:21;;;;;;;7.40;1.83;;;3.20;99.90;;;;;;8267465;28;20528;-71
2023/01/31 09:15:22;;;;;;;11.67;2.60;;;3.30;1.00;;;;;;8272040;28;20187;-71
2023/01/31 09:19:22;;;;;;;7.30;1.70;;;3.60;99.90;;;;;;8267367;28;20219;-71
2023/01/31 09:23:23;;;;;;;11.03;2.50;;;3.60;1.00;;;;;;8272679;28;20211;-71
2023/01/31 09:27:24;;;;;;;11.60;1.90;;;3.70;1.00;;;;;;8263561;28;20186;-71
2023/01/31 09:31:25;;;;;;;8.37;1.60;;;3.80;99.90;;;;;;8269503;28;20216;-70
2023/01/31 09:35:27;;;;;;;5.57;1.60;;;3.80;99.90;;;;;;8260612;28;20211;-71
2023/01/31 09:39:27;;;;;;;4.27;1.70;;;3.90;99.90;;;;;;8273840;28;20921;-71
2023/01/31 09:43:34;;;;;;;7.33;1.53;;;4.00;99.90;;;;;;8264524;28;20204;-70
2023/01/31 09:47:49;;;;;;;5.80;1.40;;;3.90;99.90;;;;;;8272617;28;20990;-73
2023/01/31 09:51:56;;;;;;;4.33;1.20;;;3.90;99.90;;;;;;8276813;28;20186;-71
2023/01/31 09:56:12;;;;;;;5.77;1.17;;;3.80;99.90;;;;;;8263099;28;20200;-69
2023/01/31 10:00:32;;;;;;;5.03;1.33;;;3.50;99.90;;;;;;8262929;28;20598;-70
2023/01/31 10:04:43;;;;;;;4.53;1.60;;;3.50;56.80;;;;;;8268281;28;20245;-72
2023/01/31 10:08:55;;;;;;;6.67;1.30;;;3.50;99.90;;;;;;8270056;28;20183;-69
2023/01/31 10:13:02;;;;;;;3.93;1.73;;;3.60;1.00;;;;;;8269609;28;20196;-71
2023/01/31 10:17:16;;;;;;;8.10;2.00;;;3.80;11.90;;;;;;8264442;28;20198;-71
2023/01/31 10:21:22;;;;;;;4.13;1.70;;;3.90;99.90;;;;;;8268599;28;20200;-71
2023/01/31 10:25:31;;;;;;;3.60;1.60;;;4.00;99.90;;;;;;8259696;28;20218;-71
2023/01/31 10:29:40;;;;;;;2.33;1.53;;;4.10;98.20;;;;;;8279051;28;20187;-71
2023/01/31 10:33:49;;;;;;;3.80;1.40;;;3.90;1.00;;;;;;8262741;28;20181;-71
2023/01/31 10:37:58;;;;;;;4.47;1.50;;;3.90;99.90;;;;;;8269047;28;20229;-71
2023/01/31 10:42:25;;;;;;;8.03;1.70;;;3.80;99.90;;;;;;8268798;28;20204;-71
2023/01/31 10:46:25;;;;;;;5.63;1.77;;;3.80;99.90;;;;;;8271793;28;20285;-70
2023/01/31 10:51:05;;;;;;;4.23;1.90;;;3.80;99.90;;;;;;8274734;28;20204;-71
2023/01/31 10:55:27;;;;;;;5.93;1.43;;;3.80;1.00;;;;;;8266711;28;20381;-71
2023/01/31 10:59:38;;;;;;;5.27;1.50;;;4.00;99.90;;;;;;8267403;28;20204;-70
2023/01/31 11:03:44;;;;;;;7.23;2.10;;;4.20;99.90;;;;;;8267466;28;20215;-70
2023/01/31 11:07:46;;;;;;;4.03;1.57;;;4.20;1.00;;;;;;8265141;28;20216;-70
2023/01/31 11:11:58;;;;;;;3.63;1.53;;;4.00;7.70;;;;;;8267649;28;20509;-71
2023/01/31 11:16:02;;;;;;;5.97;1.80;;;3.90;99.90;;;;;;8276904;28;20203;-71
2023/01/31 11:20:05;;;;;;;5.97;2.43;;;3.90;99.90;;;;;;8271208;28;20194;-71
2023/01/31 11:24:19;;;;;;;6.93;2.10;;;3.90;1.00;;;;;;8275344;28;20214;-71
2023/01/31 11:28:48;;;;;;;4.00;1.77;;;3.90;99.90;;;;;;8263160;28;20507;-71
2023/01/31 11:32:49;;;;;;;10.53;2.20;;;3.80;99.90;;;;;;8272798;28;20201;-71
2023/01/31 11:36:50;;;;;;;4.87;1.80;;;3.80;99.90;;;;;;8270368;28;20233;-70
2023/01/31 11:40:51;;;;;;;4.90;1.60;;;3.80;99.90;;;;;;8270754;28;20220;-70
2023/01/31 11:45:03;;;;;;;9.80;2.20;;;3.90;61.70;;;;;;8273388;28;20225;-71
2023/01/31 11:49:12;;;;;;;4.23;1.77;;;3.90;99.90;;;;;;8275075;28;20182;-70
2023/01/31 11:53:42;;;;;;;4.40;1.80;;;4.00;9.50;;;;;;8268695;28;20484;-71
2023/01/31 11:57:43;;;;;;;5.03;1.57;;;4.20;1.00;;;;;;8272265;28;20198;-71
2023/01/31 12:01:51;;;;;;;6.50;2.17;;;4.20;99.90;;;;;;8263719;28;20273;-71
2023/01/31 12:06:05;;;;;;;5.83;1.60;;;4.30;99.90;;;;;;8266135;28;20269;-71
2023/01/31 12:10:36;;;;;;;11.10;2.37;;;4.30;99.90;;;;;;8267777;28;20195;-71
2023/01/31 12:14:39;;;;;;;5.50;1.87;;;4.30;99.40;;;;;;8263340;28;20215;-71
2023/01/31 12:19:10;;;;;;;8.87;1.70;;;4.40;99.90;;;;;;8271847;28;20192;-71
2023/01/31 12:23:43;;;;;;;7.50;1.73;;;4.40;99.90;;;;;;8273304;28;20196;-71
2023/01/31 12:28:00;;;;;;;9.03;1.80;;;4.40;1.00;;;;;;8281362;28;20222;-71
2023/01/31 12:32:29;;;;;;;5.60;1.63;;;4.30;15.30;;;;;;8274303;28;20182;-71
2023/01/31 12:36:50;;;;;;;13.73;1.70;;;4.50;1.00;;;;;;8263014;28;20217;-71
2023/01/31 12:41:06;;;;;;;3.73;1.40;;;4.60;1.00;;;;;;8263606;28;20191;-71
2023/01/31 12:45:45;;;;;;;7.57;1.57;;;4.80;1.00;;;;;;8266022;28;20274;-71
2023/01/31 12:50:23;;;;;;;8.80;1.70;;;4.80;99.90;;;;;;8263628;28;20183;-71
2023/01/31 12:54:33;;;;;;;6.90;2.23;;;4.90;99.90;;;;;;8265674;28;20184;-71
2023/01/31 12:58:44;;;;;;;4.23;1.53;;;4.90;99.90;;;;;;8265255;28;20241;-71
2023/01/31 13:02:53;;;;;;;10.13;2.33;;;4.80;99.90;;;;;;8280566;28;20191;-71
2023/01/31 13:07:07;;;;;;;11.70;2.23;;;4.60;1.00;;;;;;8269688;28;20200;-71
2023/01/31 13:11:18;;;;;;;11.27;2.00;;;4.40;99.90;;;;;;8272194;28;20270;-71
2023/01/31 13:15:31;;;;;;;8.33;2.27;;;4.40;99.90;;;;;;8275480;28;20277;-71
2023/01/31 13:19:53;;;;;;;7.77;2.30;;;4.30;99.90;;;;;;8268609;28;20192;-72
2023/01/31 13:24:01;;;;;;;6.87;1.90;;;4.30;99.90;;;;;;8266081;28;20211;-72
2023/01/31 13:28:20;;;;;;;8.97;1.90;;;4.30;99.90;;;;;;8273367;28;20342;-72
2023/01/31 13:32:41;;;;;;;6.90;2.27;;;4.20;99.90;;;;;;8269741;28;20183;-71
2023/01/31 13:36:46;;;;;;;6.13;2.10;;;4.20;99.90;;;;;;8284617;28;20238;-70
2023/01/31 13:40:53;;;;;;;10.93;2.60;;;4.20;99.90;;;;;;8264041;28;20467;-72
2023/01/31 13:44:58;;;;;;;8.40;3.17;;;4.10;99.90;;;;;;8267259;28;20215;-71
2023/01/31 13:49:09;;;;;;;9.63;3.17;;;4.20;99.90;;;;;;8269558;28;20215;-71
2023/01/31 13:53:18;;;;;;;13.07;3.30;;;4.20;99.90;;;;;;8285392;28;20208;-71
2023/01/31 13:57:23;;;;;;;6.07;2.30;;;4.10;1.00;;;;;;8268427;28;20262;-73
2023/01/31 14:01:31;;;;;;;6.90;2.53;;;4.10;1.00;;;;;;8272934;28;20253;-72
2023/01/31 14:05:47;;;;;;;7.67;1.87;;;4.20;1.00;;;;;;8271003;28;20203;-72
2023/01/31 14:09:48;;;;;;;7.70;2.87;;;4.10;1.00;;;;;;8269451;28;20190;-67
2023/01/31 14:14:08;;;;;;;6.53;2.63;;;4.10;1.00;;;;;;8278125;28;20226;-67
2023/01/31 14:18:09;;;;;;;9.30;3.13;;;4.10;1.00;;;;;;8279437;28;20245;-67
2023/01/31 14:22:19;;;;;;;12.50;3.23;;;4.00;1.00;;;;;;8278564;28;20261;-68
2023/01/31 14:26:41;;;;;;;8.50;3.07;;;4.00;74.40;;;;;;8273267;28;20234;-68
2023/01/31 14:30:46;;;;;;;8.90;3.60;;;4.00;99.90;;;;;;8271642;28;20210;-68
2023/01/31 14:34:48;;;;;;;7.73;4.00;;;4.00;99.90;;;;;;8275692;28;20209;-68
2023/01/31 14:38:56;;;;;;;12.17;3.23;;;3.90;99.90;;;;;;8277916;28;20199;-68
2023/01/31 14:43:19;;;;;;;13.03;3.53;;;3.90;1.00;;;;;;8278322;28;20211;-68
2023/01/31 14:47:29;;;;;;;9.03;3.17;;;3.80;1.00;;;;;;8274428;28;20178;-68
2023/01/31 14:51:54;;;;;;;6.67;2.80;;;3.80;99.90;;;;;;8274110;28;20278;-68
2023/01/31 14:56:02;;;;;;;8.60;3.27;;;3.80;99.90;;;;;;8275820;28;20179;-68
2023/01/31 15:00:25;;;;;;;7.90;3.30;;;3.70;1.00;;;;;;8274160;28;20195;-68
2023/01/31 15:04:27;;;;;;;6.50;3.13;;;3.70;1.00;;;;;;8272771;28;20212;-68
2023/01/31 15:08:48;;;;;;;9.00;3.40;;;3.60;99.90;;;;;;8272931;28;20187;-67
2023/01/31 15:12:55;;;;;;;8.90;3.30;;;3.60;1.00;;;;;;8272632;28;20213;-68
2023/01/31 15:17:18;;;;;;;10.03;2.73;;;3.50;99.90;;;;;;8274614;28;20219;-68
2023/01/31 15:21:24;;;;;;;11.90;3.43;;;3.50;99.90;;;;;;8266594;28;20194;-68
2023/01/31 15:25:42;;;;;;;12.33;3.60;;;3.40;1.00;;;;;;8269127;28;20211;-68
2023/01/31 15:29:52;;;;;;;10.17;3.20;;;3.30;99.90;;;;;;8266876;28;20176;-67
2023/01/31 15:34:00;;;;;;;6.13;2.90;;;3.30;96.60;;;;;;8265630;28;20212;-67
2023/01/31 15:38:09;;;;;;;9.80;3.63;;;3.30;99.90;;;;;;8266544;28;20259;-68
2023/01/31 15:42:26;;;;;;;10.20;3.83;;;3.20;99.90;;;;;;8268263;28;20277;-68
2023/01/31 15:46:31;;;;;;;11.57;5.30;;;3.20;99.90;;;;;;8271719;28;20237;-68
2023/01/31 15:50:33;;;;;;;8.97;4.37;;;3.20;1.00;;;;;;8266024;28;20218;-67
2023/01/31 15:54:34;;;;;;;10.30;4.13;;;3.10;1.00;;;;;;8266961;28;20185;-67
2023/01/31 15:58:37;;;;;;;7.50;3.80;;;3.10;1.00;;;;;;8266725;28;20190;-68
2023/01/31 16:02:38;;;;;;;8.03;3.93;;;3.00;1.00;;;;;;8264642;28;20469;-68
2023/01/31 16:06:39;;;;;;;9.63;4.07;;;3.00;72.10;;;;;;8266164;28;20188;-68
2023/01/31 16:10:43;;;;;;;8.00;3.93;;;3.00;99.90;;;;;;8264310;28;20185;-63
2023/01/31 16:14:47;;;;;;;13.70;3.97;;;3.00;99.90;;;;;;8267058;28;20179;-64
2023/01/31 16:18:51;;;;;;;8.77;4.03;;;2.90;99.90;;;;;;8270635;28;20196;-63
2023/01/31 16:22:55;;;;;;;7.87;4.00;;;2.90;1.00;;;;;;8266376;28;20187;-62
2023/01/31 16:27:04;;;;;;;10.53;4.63;;;2.90;1.00;;;;;;8270072;28;20189;-63
2023/01/31 16:31:15;;;;;;;10.27;4.13;;;2.90;1.00;;;;;;8273123;28;20199;-63
2023/01/31 16:35:27;;;;;;;9.20;4.37;;;2.90;2.80;;;;;;8265221;28;20199;-62
2023/01/31 16:39:28;;;;;;;11.33;4.00;;;2.90;54.70;;;;;;8263298;28;20203;-63
2023/01/31 16:43:31;;;;;;;8.00;4.17;;;2.90;92.00;;;;;;8258589;28;20218;-63
2023/01/31 16:47:45;;;;;;;7.17;4.20;;;2.90;99.90;;;;;;8263557;28;20253;-62
2023/01/31 16:51:46;;;;;;;7.40;4.03;;;2.80;99.90;;;;;;8267357;28;20197;-64
2023/01/31 16:56:12;;;;;;;6.97;3.80;;;2.90;99.90;;;;;;8262206;28;20277;-63
2023/01/31 17:00:22;;;;;;;6.43;4.10;;;2.80;99.90;;;;;;8261657;28;20286;-63
2023/01/31 17:04:24;;;;;;;8.50;3.53;;;2.80;99.90;;;;;;8262632;28;20298;-64
2023/01/31 17:08:25;;;;;;;6.93;3.57;;;2.90;99.90;;;;;;8262253;28;20191;-63
2023/01/31 17:12:32;;;;;;;9.57;4.43;;;2.90;99.90;;;;;;8270053;28;20172;-63
2023/01/31 17:16:33;;;;;;;7.17;4.03;;;2.90;99.90;;;;;;8261662;28;20184;-63
2023/01/31 17:20:34;;;;;;;7.30;3.97;;;2.80;99.90;;;;;;8264269;28;20187;-63
2023/01/31 17:24:36;;;;;;;7.03;3.87;;;2.80;99.90;;;;;;8265319;28;20242;-62
2023/01/31 17:28:37;;;;;;;7.30;4.20;;;2.80;99.90;;;;;;8263049;28;20175;-63
2023/01/31 17:32:38;;;;;;;7.30;4.30;;;2.90;99.90;;;;;;8263564;28;20282;-63
2023/01/31 17:36:40;;;;;;;8.77;4.23;;;2.90;99.90;;;;;;8262957;28;20207;-63
2023/01/31 17:40:42;;;;;;;9.20;3.30;;;2.90;99.90;;;;;;8269713;28;20291;-63
2023/01/31 17:44:45;;;;;;;10.23;3.80;;;2.90;99.90;;;;;;8268329;28;20223;-63
2023/01/31 17:48:46;;;;;;;7.30;3.43;;;2.90;99.90;;;;;;8271273;28;20181;-64
2023/01/31 17:52:47;;;;;;;10.00;3.63;;;3.00;99.90;;;;;;8266011;28;20190;-63
2023/01/31 17:56:48;;;;;;;4.43;2.77;;;3.00;99.90;;;;;;8268882;28;20434;-64
2023/01/31 18:00:48;;;;;;;10.03;3.53;;;3.00;99.90;;;;;;8264493;28;20212;-63
2023/01/31 18:04:51;;;;;;;5.70;3.30;;;3.10;99.90;;;;;;8263015;28;20219;-63
2023/01/31 18:08:52;;;;;;;6.93;3.43;;;3.10;99.90;;;;;;8261330;28;20188;-62
2023/01/31 18:12:52;;;;;;;5.23;3.40;;;3.10;99.90;;;;;;8261914;28;20195;-63
2023/01/31 18:16:53;;;;;;;7.40;3.50;;;3.20;99.90;;;;;;8263332;28;20244;-63
2023/01/31 18:20:54;;;;;;;4.77;2.93;;;3.20;99.90;;;;;;8262496;28;20182;-63
2023/01/31 18:24:55;;;;;;;7.73;3.40;;;3.20;99.90;;;;;;8267655;28;20242;-63
2023/01/31 18:28:56;;;;;;;4.57;3.20;;;3.20;99.90;;;;;;8264013;28;20180;-63
2023/01/31 18:32:57;;;;;;;5.13;3.47;;;3.30;99.90;;;;;;8261949;28;20266;-63
2023/01/31 18:37:04;;;;;;;5.80;3.63;;;3.30;99.90;;;;;;8264112;28;20208;-63
2023/01/31 18:41:06;;;;;;;8.03;3.37;;;3.30;99.90;;;;;;8261815;28;20196;-63
2023/01/31 18:45:08;;;;;;;5.23;3.07;;;3.40;99.90;;;;;;8261771;28;20223;-63
2023/01/31 18:49:08;;;;;;;5.60;3.77;;;3.40;99.90;;;;;;8263226;28;20214;-63
2023/01/31 18:53:09;;;;;;;5.40;3.60;;;3.40;99.90;;;;;;8262958;28;20198;-64
2023/01/31 18:57:10;;;;;;;6.77;3.37;;;3.50;99.90;;;;;;8263106;28;20185;-63
2023/01/31 19:01:14;;;;;;;6.10;3.53;;;3.50;99.90;;;;;;8271397;28;20187;-63
2023/01/31 19:05:15;;;;;;;6.63;3.57;;;3.50;99.90;;;;;;8271740;28;20215;-64
2023/01/31 19:09:17;;;;;;;6.03;3.47;;;3.50;99.90;;;;;;8274184;28;20738;-62
2023/01/31 19:13:18;;;;;;;5.57;3.50;;;3.50;99.90;;;;;;8272668;28;20224;-63
2023/01/31 19:17:19;;;;;;;7.80;3.77;;;3.50;99.90;;;;;;8267576;28;20187;-63
2023/01/31 19:21:22;;;;;;;7.13;3.50;;;3.50;99.90;;;;;;8270126;28;20210;-63
2023/01/31 19:25:23;;;;;;;5.17;3.53;;;3.50;99.90;;;;;;8265383;28;20242;-64
2023/01/31 19:29:25;;;;;;;6.53;3.30;;;3.50;99.90;;;;;;8266774;28;20188;-63
2023/01/31 19:33:27;;;;;;;6.70;3.30;;;3.50;99.90;;;;;;8269060;28;20187;-63
2023/01/31 19:37:28;;;;;;;7.13;3.60;;;3.50;99.90;;;;;;8274857;28;20229;-63
2023/01/31 19:41:29;;;;;;;4.17;3.03;;;3.50;99.90;;;;;;8269680;28;20204;-63
2023/01/31 19:45:30;;;;;;;5.20;3.60;;;3.50;99.90;;;;;;8266679;28;20205;-63
2023/01/31 19:49:32;;;;;;;4.70;3.27;;;3.50;99.90;;;;;;8266175;28;20184;-64
2023/01/31 19:53:32;;;;;;;7.13;3.63;;;3.50;99.90;;;;;;8269990;28;20186;-64
2023/01/31 19:57:33;;;;;;;7.57;3.40;;;3.60;99.90;;;;;;8268517;28;20467;-63
2023/01/31 20:01:34;;;;;;;6.27;3.57;;;3.50;99.90;;;;;;8263751;28;20269;-64
2023/01/31 20:05:35;;;;;;;5.40;3.07;;;3.60;99.90;;;;;;8265033;28;20218;-63
2023/01/31 20:09:36;;;;;;;6.50;3.70;;;3.60;99.90;;;;;;8265767;28;20181;-62
2023/01/31 20:13:37;;;;;;;6.00;3.80;;;3.70;99.90;;;;;;8269544;28;20197;-63
2023/01/31 20:17:38;;;;;;;6.50;3.47;;;3.70;99.90;;;;;;8265264;28;20180;-62
2023/01/31 20:21:39;;;;;;;6.57;3.77;;;3.70;99.90;;;;;;8266108;28;20191;-63
2023/01/31 20:25:39;;;;;;;8.77;4.10;;;3.70;99.90;;;;;;8260435;28;20226;-63
2023/01/31 20:29:40;;;;;;;5.60;3.77;;;3.70;99.90;;;;;;8262347;28;20217;-63
2023/01/31 20:33:42;;;;;;;6.17;3.07;;;3.70;99.90;;;;;;8272226;28;20200;-66
2023/01/31 20:37:43;;;;;;;5.10;3.17;;;3.80;99.90;;;;;;8267117;28;20203;-63
2023/01/31 20:41:44;;;;;;;7.13;2.87;;;3.80;99.90;;;;;;8270682;28;20206;-63
2023/01/31 20:45:45;;;;;;;3.93;2.90;;;3.90;99.90;;;;;;8263518;28;20543;-63
2023/01/31 20:49:45;;;;;;;6.10;2.87;;;3.90;99.90;;;;;;8266336;28;20268;-64
2023/01/31 20:53:46;;;;;;;3.17;2.87;;;3.90;18.50;;;;;;8263649;28;20196;-63
2023/01/31 20:57:49;;;;;;;5.23;3.13;;;3.90;1.00;;;;;;8265827;28;20218;-63
2023/01/31 21:01:50;;;;;;;4.00;2.73;;;4.00;1.00;;;;;;8267013;28;20200;-63
2023/01/31 21:05:52;;;;;;;5.63;3.43;;;4.00;99.90;;;;;;8265304;28;20260;-64
2023/01/31 21:09:53;;;;;;;3.93;2.90;;;4.00;99.90;;;;;;8265608;28;20187;-64
2023/01/31 21:13:54;;;;;;;3.93;2.83;;;4.10;1.00;;;;;;8263966;28;20186;-64
2023/01/31 21:17:55;;;;;;;5.40;3.00;;;4.10;99.90;;;;;;8266954;28;20191;-64
2023/01/31 21:21:56;;;;;;;4.70;2.77;;;4.10;99.90;;;;;;8263619;28;20246;-65
2023/01/31 21:26:02;;;;;;;4.27;3.03;;;4.20;1.00;;;;;;8258887;28;20273;-63
2023/01/31 21:30:03;;;;;;;4.07;2.60;;;4.20;99.90;;;;;;8260852;28;20196;-63
2023/01/31 21:34:05;;;;;;;3.10;2.43;;;4.20;99.90;;;;;;8263491;28;20209;-64
2023/01/31 21:38:06;;;;;;;4.77;2.70;;;4.30;99.90;;;;;;8264739;28;20188;-63
2023/01/31 21:42:14;;;;;;;3.77;2.67;;;4.30;1.00;;;;;;8256424;28;20242;-62